Keene, NH

5:11 AM EDT on April 26, 2015 (GMT -0400)
Jaffrey Airport-Silver Ranch | | Change Station
CLOSE
Current Station
Airport
Location: Jaffrey,
Elevation: 1040 ft
Nearby Weather Stations

Elev 1040 ft 42.81 °N, 72.00 °W | Updated 19 minutes ago

Overcast
Overcast
36 °F
Feels Like 36 °F
N
0
Wind Variable Wind from North

Today
High -- | Low -- °F
--% Chance of Precip.
Yesterday
High -- | Low -- °F
Precip. -- in
5:50 AM 7:44 PM
First Quarter, 54% visible
Pressure 29.69 in
Visibility 10.0 miles
Clouds Few 4700 ft
Overcast 6000 ft
Dew Point 31 °F
Humidity 82%
Rainfall 0.00 in
Snow Depth Not available.
UV 0 out of 12
Pollen 9.50 out of 12
Air Quality Not available.
Flu Activity Regional
METAR KAFN 260852Z AUTO 00000KT 10SM FEW047 OVC060 02/M01 A2966 RMK AO2 SLP053 T00221006 56010

More Conditions Fewer Conditions

Pressure 29.69 in
Visibility 10.0 miles
Clouds Few 4700 ft
Overcast 6000 ft
Dew Point 31 °F
Humidity 82%
Rainfall 0.00 in
Snow Depth Not available.
UV 0 out of 12
Pollen 9.50 out of 12
Air Quality Not available.
Flu Activity Regional
METAR KAFN 260852Z AUTO 00000KT 10SM FEW047 OVC060 02/M01 A2966 RMK AO2 SLP053 T00221006 56010

More Conditions Fewer Conditions

The full scope of the disaster following a powerful 7.8-magnitude earthquake in Nepal may not come into view for days, but global charities are already sending emergency aid. Click to see how you can help.

10-Day Weather Forecast

Almanac

Astronomy

Apr. 26, 2015 Rise Set
Actual Time
Civil Twilight
Nautical Twilight
Astronomical Twilight
Moon
Length of Visible Light
Length of Day
Tomorrow will be .
, % of the Moon is Illuminated

Today's Extremes

State Highs State Lows

Community

WunderPhotos

Upload Photos

1,816,953 photos uploaded!

WunderBlogs® & News

Nearby

Air Quality

  Air Quality AQ Index Pollutant
Not available.

Snow Depth

Station Depth Elevation

Earthquake Activity

City Distance Mag. Time & Date
Minimum magnitude displayed is 2.5.

Coastal Water Temperatures

Place Temperature

Stations

Nearby Weather Stations

Station Location Temp. Windchill Dew Point Humidity Wind Precip. Elev Updated Type